Time;durP1;ratioP1;P1;durP2;ratioP2;P2;SDS_P1;SDS_P2;PMS_P1;PMS_P2;Temp;Humidity;BMP_temperature;BMP_pressure;BME280_temperature;BME280_humidity;BME280_pressure;Samples;Min_cycle;Max_cycle;Signal;HPM_P1;HPM_P2
2024/04/23 00:00:30;;;;;;;7.38;3.38;;;;;;;;;;5415694;26;19987;-60
2024/04/23 00:02:56;;;;;;;8.70;3.25;;;;;;;;;;5423336;26;20011;-62
2024/04/23 00:05:21;;;;;;;8.10;3.40;;;;;;;;;;5443996;26;20074;-61
2024/04/23 00:07:47;;;;;;;7.57;3.22;;;;;;;;;;5440895;26;20004;-59
2024/04/23 00:10:12;;;;;;;7.70;3.53;;;;;;;;;;5438781;26;20063;-60
2024/04/23 00:12:38;;;;;;;8.30;3.47;;;;;;;;;;5448135;26;19995;-61
2024/04/23 00:15:03;;;;;;;8.75;3.28;;;;;;;;;;5443083;26;20023;-60
2024/04/23 00:17:29;;;;;;;7.25;3.38;;;;;;;;;;5437303;26;20079;-60
2024/04/23 00:19:54;;;;;;;7.50;3.40;;;;;;;;;;5433574;26;19995;-60
2024/04/23 00:22:20;;;;;;;8.00;3.17;;;;;;;;;;5426732;26;20003;-61
2024/04/23 00:24:45;;;;;;;8.30;3.80;;;;;;;;;;5441145;26;20072;-60
2024/04/23 00:27:11;;;;;;;7.57;3.35;;;;;;;;;;5428181;26;19991;-61
2024/04/23 00:29:36;;;;;;;7.60;3.58;;;;;;;;;;5449308;26;20007;-61
2024/04/23 00:32:02;;;;;;;8.20;3.55;;;;;;;;;;5448257;26;20083;-60
2024/04/23 00:34:27;;;;;;;8.30;3.20;;;;;;;;;;5444543;26;20010;-60
2024/04/23 00:36:57;;;;;;;7.05;3.00;;;;;;;;;;5449507;26;20003;-62
2024/04/23 00:39:23;;;;;;;7.63;3.33;;;;;;;;;;5439757;26;19999;-61
2024/04/23 00:41:49;;;;;;;9.27;3.20;;;;;;;;;;5418665;26;20007;-60
2024/04/23 00:44:14;;;;;;;8.00;3.53;;;;;;;;;;5443387;26;20411;-61
2024/04/23 00:46:41;;;;;;;8.60;3.22;;;;;;;;;;5463882;26;20004;-61
2024/04/23 00:49:11;;;;;;;7.22;2.90;;;;;;;;;;5434391;26;20003;-62
2024/04/23 00:51:37;;;;;;;6.75;3.10;;;;;;;;;;5416604;26;20003;-61
2024/04/23 00:54:02;;;;;;;8.23;3.30;;;;;;;;;;5438988;26;19998;-61
2024/04/23 00:56:28;;;;;;;6.45;2.65;;;;;;;;;;5441788;26;20187;-60
2024/04/23 00:58:54;;;;;;;6.30;2.67;;;;;;;;;;5415495;26;19996;-60
2024/04/23 01:01:20;;;;;;;7.60;3.15;;;;;;;;;;5430384;26;20435;-61
2024/04/23 01:03:45;;;;;;;6.82;2.85;;;;;;;;;;5435848;26;20011;-60
2024/04/23 01:06:11;;;;;;;7.35;3.17;;;;;;;;;;5437398;26;20008;-61
2024/04/23 01:08:37;;;;;;;7.65;3.30;;;;;;;;;;5438009;26;20078;-60
2024/04/23 01:11:02;;;;;;;6.80;2.92;;;;;;;;;;5414832;26;19995;-61
2024/04/23 01:13:28;;;;;;;8.32;2.92;;;;;;;;;;5425536;26;20404;-60
2024/04/23 01:15:53;;;;;;;8.80;3.05;;;;;;;;;;5438940;26;19994;-61
2024/04/23 01:18:19;;;;;;;7.00;3.13;;;;;;;;;;5436630;26;20011;-60
2024/04/23 01:20:45;;;;;;;7.05;3.28;;;;;;;;;;5446353;26;20328;-60
2024/04/23 01:23:13;;;;;;;7.13;2.92;;;;;;;;;;5442477;26;20312;-60
2024/04/23 01:25:41;;;;;;;7.97;3.25;;;;;;;;;;5440022;26;19994;-60
2024/04/23 01:28:07;;;;;;;6.50;2.80;;;;;;;;;;5412468;26;20053;-62
2024/04/23 01:30:33;;;;;;;6.32;2.90;;;;;;;;;;5424677;26;19991;-61
2024/04/23 01:32:59;;;;;;;7.90;3.13;;;;;;;;;;5438370;26;20000;-60
2024/04/23 01:35:25;;;;;;;8.00;2.90;;;;;;;;;;5446786;26;20006;-61
2024/04/23 01:37:52;;;;;;;7.82;2.95;;;;;;;;;;5447315;26;20044;-60
2024/04/23 01:40:19;;;;;;;8.23;3.30;;;;;;;;;;5446949;26;20009;-60
2024/04/23 01:42:45;;;;;;;6.55;3.10;;;;;;;;;;5436356;26;20027;-60
2024/04/23 01:48:14;;;;;;;6.63;2.80;;;;;;;;;;5424577;26;20032;-62
2024/04/23 01:50:39;;;;;;;6.10;2.65;;;;;;;;;;5427653;26;20003;-62
2024/04/23 01:53:05;;;;;;;8.32;3.30;;;;;;;;;;5430073;26;19995;-61
2024/04/23 01:55:30;;;;;;;7.80;3.20;;;;;;;;;;5442135;26;20068;-61
2024/04/23 01:57:56;;;;;;;7.25;3.10;;;;;;;;;;5422896;26;19991;-61
2024/04/23 02:00:23;;;;;;;7.22;3.08;;;;;;;;;;5440436;26;20004;-61
2024/04/23 02:02:48;;;;;;;;;;;;;;;;;;5418011;26;20002;-60
2024/04/23 02:05:14;;;;;;;5.80;2.47;;;;;;;;;;5441816;26;19932;-65
2024/04/23 02:07:40;;;;;;;5.65;2.53;;;;;;;;;;5447576;26;20728;-62
2024/04/23 02:10:06;;;;;;;9.05;2.92;;;;;;;;;;5424020;26;19992;-60
2024/04/23 02:12:31;;;;;;;7.85;2.97;;;;;;;;;;5415131;26;20152;-61
2024/04/23 02:14:57;;;;;;;7.38;2.70;;;;;;;;;;5437486;26;20013;-62
2024/04/23 02:17:22;;;;;;;7.80;3.03;;;;;;;;;;5434141;26;20046;-61
2024/04/23 02:19:48;;;;;;;6.93;3.10;;;;;;;;;;5425262;26;20067;-62
2024/04/23 02:22:13;;;;;;;6.65;2.75;;;;;;;;;;5445520;26;19995;-61
2024/04/23 02:24:39;;;;;;;7.07;2.88;;;;;;;;;;5450482;26;20011;-60
2024/04/23 02:27:04;;;;;;;6.78;3.05;;;;;;;;;;5447985;26;20067;-61
2024/04/23 02:29:30;;;;;;;7.32;2.70;;;;;;;;;;5447213;26;20002;-60
2024/04/23 02:32:00;;;;;;;6.70;2.90;;;;;;;;;;5417752;26;20321;-62
2024/04/23 02:34:25;;;;;;;7.00;3.13;;;;;;;;;;5450035;26;19995;-61
2024/04/23 02:36:53;;;;;;;6.22;2.70;;;;;;;;;;5421924;26;20068;-61
2024/04/23 02:39:18;;;;;;;;;;;;;;;;;;5417710;26;20077;-61
2024/04/23 02:41:47;;;;;;;6.47;2.83;;;;;;;;;;5417083;26;19925;-60
2024/04/23 02:44:13;;;;;;;9.20;3.10;;;;;;;;;;5422326;26;20374;-60
2024/04/23 02:46:38;;;;;;;8.77;2.70;;;;;;;;;;5443282;26;20003;-61
2024/04/23 02:49:04;;;;;;;9.25;3.15;;;;;;;;;;5444919;26;20066;-62
2024/04/23 02:51:29;;;;;;;7.15;3.10;;;;;;;;;;5438333;26;20017;-61
2024/04/23 02:53:55;;;;;;;7.90;3.20;;;;;;;;;;5433499;26;20016;-60
2024/04/23 02:56:20;;;;;;;6.07;2.60;;;;;;;;;;5449264;26;20380;-60
2024/04/23 02:58:46;;;;;;;6.72;3.00;;;;;;;;;;5452374;26;20031;-60
2024/04/23 03:01:11;;;;;;;6.28;2.60;;;;;;;;;;5430067;26;20063;-61
2024/04/23 03:03:37;;;;;;;7.82;2.67;;;;;;;;;;5435112;26;20011;-60
2024/04/23 03:06:02;;;;;;;8.50;3.10;;;;;;;;;;5460201;26;20094;-61
2024/04/23 03:08:28;;;;;;;5.82;2.38;;;;;;;;;;5418485;26;20015;-61
2024/04/23 03:10:53;;;;;;;7.25;2.97;;;;;;;;;;5429288;26;20068;-60
2024/04/23 03:13:19;;;;;;;8.98;2.92;;;;;;;;;;5425799;26;20400;-61
2024/04/23 03:15:45;;;;;;;8.23;3.20;;;;;;;;;;5446172;26;20017;-60
2024/04/23 03:18:10;;;;;;;7.00;2.97;;;;;;;;;;5453343;26;20408;-60
2024/04/23 03:20:36;;;;;;;9.18;3.20;;;;;;;;;;5431155;26;20408;-61
2024/04/23 03:23:01;;;;;;;6.78;2.90;;;;;;;;;;5418060;26;20404;-61
2024/04/23 03:25:27;;;;;;;6.65;2.55;;;;;;;;;;5451030;26;20010;-61
2024/04/23 03:27:52;;;;;;;10.40;3.15;;;;;;;;;;5452663;26;20471;-61
2024/04/23 03:30:18;;;;;;;6.20;2.72;;;;;;;;;;5437674;26;20006;-62
2024/04/23 03:32:43;;;;;;;8.13;2.90;;;;;;;;;;5448344;26;20006;-61
2024/04/23 03:35:09;;;;;;;6.65;2.75;;;;;;;;;;5439296;26;20326;-61
2024/04/23 03:37:34;;;;;;;8.93;3.35;;;;;;;;;;5440832;26;20349;-61
2024/04/23 03:40:00;;;;;;;7.63;2.95;;;;;;;;;;5450159;26;20396;-60
2024/04/23 03:42:25;;;;;;;6.97;2.78;;;;;;;;;;5452079;26;20395;-60
2024/04/23 03:44:51;;;;;;;8.40;2.70;;;;;;;;;;5451802;26;20461;-61
2024/04/23 03:47:16;;;;;;;6.43;2.70;;;;;;;;;;5434021;26;20006;-62
2024/04/23 03:49:42;;;;;;;8.15;3.38;;;;;;;;;;5452300;26;20075;-62
2024/04/23 03:52:08;;;;;;;6.50;2.78;;;;;;;;;;5451714;26;19995;-61
2024/04/23 03:54:34;;;;;;;6.18;2.78;;;;;;;;;;5452101;26;20009;-61
2024/04/23 03:56:59;;;;;;;8.75;3.22;;;;;;;;;;5447322;26;19991;-60
2024/04/23 03:59:26;;;;;;;9.85;3.75;;;;;;;;;;5452063;26;20459;-60
2024/04/23 04:06:03;;;;;;;9.05;3.47;;;;;;;;;;5438844;26;20011;-61
2024/04/23 04:07:21;;;;;;;7.15;2.88;;;;;;;;;;5445431;26;20009;-61
2024/04/23 04:09:46;;;;;;;7.28;3.10;;;;;;;;;;5447956;26;20503;-61
2024/04/23 04:12:13;;;;;;;7.05;2.92;;;;;;;;;;5426989;26;20389;-61
2024/04/23 04:14:38;;;;;;;6.95;2.92;;;;;;;;;;5440602;26;20011;-61
2024/04/23 04:17:04;;;;;;;8.43;3.20;;;;;;;;;;5435906;26;20083;-63
2024/04/23 04:19:30;;;;;;;6.97;2.75;;;;;;;;;;5418327;26;20004;-61
2024/04/23 04:21:56;;;;;;;6.57;2.90;;;;;;;;;;5440314;26;20345;-61
2024/04/23 04:24:21;;;;;;;7.50;2.97;;;;;;;;;;5419201;26;20043;-64
2024/04/23 04:26:47;;;;;;;9.18;3.00;;;;;;;;;;5437056;26;20443;-61
2024/04/23 04:29:12;;;;;;;7.88;3.13;;;;;;;;;;5411718;26;20075;-61
2024/04/23 04:31:38;;;;;;;8.55;3.45;;;;;;;;;;5414366;26;19988;-60
2024/04/23 04:34:03;;;;;;;7.18;3.15;;;;;;;;;;5413897;26;20015;-61
2024/04/23 04:36:29;;;;;;;8.88;3.53;;;;;;;;;;5436802;26;20070;-60
2024/04/23 04:38:54;;;;;;;8.70;3.55;;;;;;;;;;5425411;26;20344;-60
2024/04/23 04:41:20;;;;;;;8.45;3.47;;;;;;;;;;5445965;26;20694;-60
2024/04/23 04:43:45;;;;;;;7.60;3.22;;;;;;;;;;5425372;26;20547;-61
2024/04/23 04:46:11;;;;;;;6.50;3.05;;;;;;;;;;5428850;26;19987;-61
2024/04/23 04:48:37;;;;;;;8.60;3.70;;;;;;;;;;5436625;26;20648;-60
2024/04/23 04:51:02;;;;;;;8.27;3.58;;;;;;;;;;5426115;26;20080;-63
2024/04/23 04:53:28;;;;;;;9.70;4.00;;;;;;;;;;5426586;26;19999;-60
2024/04/23 04:55:54;;;;;;;10.02;4.05;;;;;;;;;;5423757;26;20076;-61
2024/04/23 04:58:19;;;;;;;10.52;3.80;;;;;;;;;;5421519;26;20449;-61
2024/04/23 05:00:45;;;;;;;6.53;3.22;;;;;;;;;;5427423;26;20049;-60
2024/04/23 05:03:10;;;;;;;8.95;3.47;;;;;;;;;;5421876;26;20003;-61
2024/04/23 05:05:37;;;;;;;7.63;3.30;;;;;;;;;;5430464;26;20015;-62
2024/04/23 05:08:03;;;;;;;6.82;3.08;;;;;;;;;;5442340;26;20009;-61
2024/04/23 05:10:28;;;;;;;5.88;2.70;;;;;;;;;;5436439;26;20518;-62
2024/04/23 05:12:54;;;;;;;7.47;2.95;;;;;;;;;;5436621;26;20007;-60
2024/04/23 05:15:19;;;;;;;7.20;2.58;;;;;;;;;;5418934;26;20006;-62
2024/04/23 05:17:45;;;;;;;7.97;2.80;;;;;;;;;;5436101;26;20010;-62
2024/04/23 05:20:11;;;;;;;6.80;2.70;;;;;;;;;;5444147;26;19994;-60
2024/04/23 05:22:36;;;;;;;7.00;2.70;;;;;;;;;;5433693;26;19999;-61
2024/04/23 05:25:03;;;;;;;7.03;2.97;;;;;;;;;;5443089;26;19991;-60
2024/04/23 05:27:28;;;;;;;7.03;3.00;;;;;;;;;;5440452;26;20392;-59
2024/04/23 05:29:55;;;;;;;7.70;2.95;;;;;;;;;;5446639;26;20005;-62
2024/04/23 05:35:06;;;;;;;7.47;2.80;;;;;;;;;;5442219;26;20010;-61
2024/04/23 05:37:31;;;;;;;6.60;2.38;;;;;;;;;;5444130;26;20003;-61
2024/04/23 05:39:57;;;;;;;6.32;2.70;;;;;;;;;;5455493;26;20079;-62
2024/04/23 05:42:22;;;;;;;8.45;2.70;;;;;;;;;;5443671;26;20393;-61
2024/04/23 05:44:48;;;;;;;7.45;2.72;;;;;;;;;;5433778;26;20479;-62
2024/04/23 05:47:13;;;;;;;5.65;2.47;;;;;;;;;;5433447;26;20586;-61
2024/04/23 05:49:57;;;;;;;7.28;2.72;;;;;;;;;;5431924;26;20455;-62
2024/04/23 05:52:41;;;;;;;5.82;2.55;;;;;;;;;;5424455;26;20416;-62
2024/04/23 05:55:25;;;;;;;7.90;3.10;;;;;;;;;;5435791;26;20015;-62
2024/04/23 05:57:51;;;;;;;6.53;2.83;;;;;;;;;;5420097;26;20015;-60
2024/04/23 06:00:16;;;;;;;6.78;2.80;;;;;;;;;;5448706;26;20071;-62
2024/04/23 06:02:42;;;;;;;6.60;2.80;;;;;;;;;;5426194;26;19996;-62
2024/04/23 06:05:07;;;;;;;6.75;2.58;;;;;;;;;;5428818;26;20125;-62
2024/04/23 06:07:33;;;;;;;6.20;2.53;;;;;;;;;;5438631;26;20063;-61
2024/04/23 06:09:58;;;;;;;5.85;2.50;;;;;;;;;;5441646;26;20009;-60
2024/04/23 06:12:24;;;;;;;5.55;2.40;;;;;;;;;;5446706;26;19999;-63
2024/04/23 06:14:49;;;;;;;6.25;2.50;;;;;;;;;;5445401;26;20002;-62
2024/04/23 06:17:25;;;;;;;5.75;2.25;;;;;;;;;;5452540;26;20034;-60
2024/04/23 06:19:51;;;;;;;5.85;2.30;;;;;;;;;;5442314;26;20691;-63
2024/04/23 06:22:20;;;;;;;6.32;2.40;;;;;;;;;;5451212;26;19995;-60
2024/04/23 06:24:47;;;;;;;6.07;2.40;;;;;;;;;;5445110;26;20013;-61
2024/04/23 06:27:13;;;;;;;;;;;;;;;;;;5453654;26;19999;-62
2024/04/23 06:29:38;;;;;;;5.27;2.30;;;;;;;;;;5437426;26;19931;-60
2024/04/23 06:32:04;;;;;;;5.45;2.47;;;;;;;;;;5422227;26;20349;-61
2024/04/23 06:34:29;;;;;;;5.72;2.40;;;;;;;;;;5438942;26;20438;-60
2024/04/23 06:36:55;;;;;;;5.47;2.47;;;;;;;;;;5448823;26;20009;-62
2024/04/23 06:39:21;;;;;;;5.03;2.17;;;;;;;;;;5453798;26;20006;-60
2024/04/23 06:41:46;;;;;;;5.45;2.40;;;;;;;;;;5445775;26;20045;-61
2024/04/23 06:44:13;;;;;;;5.43;2.10;;;;;;;;;;5452213;26;19994;-61
2024/04/23 06:46:38;;;;;;;6.68;2.50;;;;;;;;;;5448848;26;20063;-59
2024/04/23 06:49:04;;;;;;;7.13;2.65;;;;;;;;;;5447972;26;19999;-62
2024/04/23 06:51:29;;;;;;;6.93;2.50;;;;;;;;;;5427817;26;19998;-62
2024/04/23 06:53:55;;;;;;;6.53;2.70;;;;;;;;;;5427009;26;20003;-61
2024/04/23 06:56:20;;;;;;;6.50;2.55;;;;;;;;;;5441189;26;21092;-62
2024/04/23 06:58:46;;;;;;;5.57;2.45;;;;;;;;;;5446381;26;20412;-63
2024/04/23 07:01:13;;;;;;;7.18;2.70;;;;;;;;;;5439507;26;20484;-61
2024/04/23 07:03:39;;;;;;;7.28;2.20;;;;;;;;;;5439559;26;19999;-61
2024/04/23 07:06:05;;;;;;;6.88;2.30;;;;;;;;;;5442924;26;20031;-63
2024/04/23 07:08:31;;;;;;;6.13;2.33;;;;;;;;;;5452891;26;19999;-61
2024/04/23 07:10:56;;;;;;;6.35;2.50;;;;;;;;;;5451220;26;19991;-61
2024/04/23 07:13:22;;;;;;;5.15;2.30;;;;;;;;;;5447482;26;20003;-60
2024/04/23 07:15:47;;;;;;;5.60;2.30;;;;;;;;;;5445502;26;19991;-61
2024/04/23 07:18:13;;;;;;;5.60;2.17;;;;;;;;;;5433764;26;20011;-61
2024/04/23 07:20:38;;;;;;;5.95;2.53;;;;;;;;;;5442238;26;20052;-61
2024/04/23 07:23:04;;;;;;;5.38;2.20;;;;;;;;;;5448562;26;19999;-61
2024/04/23 07:25:30;;;;;;;5.95;2.30;;;;;;;;;;5463669;26;19998;-63
2024/04/23 07:27:55;;;;;;;6.35;2.28;;;;;;;;;;5449203;26;20007;-61
2024/04/23 07:30:25;;;;;;;5.47;2.45;;;;;;;;;;5465718;26;20071;-61
2024/04/23 07:32:54;;;;;;;5.97;2.58;;;;;;;;;;5438738;26;19995;-60
2024/04/23 07:35:20;;;;;;;6.60;2.08;;;;;;;;;;5442766;26;20002;-62
2024/04/23 07:37:45;;;;;;;4.90;1.90;;;;;;;;;;5438281;26;19996;-61
2024/04/23 07:40:11;;;;;;;5.47;2.00;;;;;;;;;;5444299;26;19999;-62
2024/04/23 07:42:36;;;;;;;5.18;1.80;;;;;;;;;;5447566;26;20044;-61
2024/04/23 07:45:02;;;;;;;5.00;2.20;;;;;;;;;;5447461;26;20003;-61
2024/04/23 07:47:27;;;;;;;5.20;2.10;;;;;;;;;;5444128;26;20011;-61
2024/04/23 07:49:53;;;;;;;5.78;2.00;;;;;;;;;;5440750;26;20014;-61
2024/04/23 07:52:18;;;;;;;5.63;2.10;;;;;;;;;;5428461;26;20071;-61
2024/04/23 07:54:50;;;;;;;5.10;2.08;;;;;;;;;;5450967;26;20153;-63
2024/04/23 07:57:15;;;;;;;4.93;2.03;;;;;;;;;;5433801;26;20054;-61
2024/04/23 07:59:41;;;;;;;6.22;2.28;;;;;;;;;;5452058;26;20010;-61
2024/04/23 08:02:06;;;;;;;5.57;1.95;;;;;;;;;;5432469;26;20015;-61
2024/04/23 08:04:32;;;;;;;5.38;2.20;;;;;;;;;;5441934;26;20006;-61
2024/04/23 08:06:57;;;;;;;5.78;2.10;;;;;;;;;;5439756;26;20018;-61
2024/04/23 08:09:23;;;;;;;5.18;2.15;;;;;;;;;;5455093;26;20003;-62
2024/04/23 08:11:48;;;;;;;5.13;1.88;;;;;;;;;;5439842;26;20012;-61
2024/04/23 08:14:14;;;;;;;4.65;1.80;;;;;;;;;;5448271;26;20013;-61
2024/04/23 08:16:39;;;;;;;5.05;1.98;;;;;;;;;;5445849;26;20011;-63
2024/04/23 08:19:05;;;;;;;4.57;1.88;;;;;;;;;;5445803;26;20071;-61
2024/04/23 08:21:30;;;;;;;4.97;2.05;;;;;;;;;;5439068;26;19999;-61
2024/04/23 08:23:56;;;;;;;5.75;1.95;;;;;;;;;;5428406;26;20011;-62
2024/04/23 08:26:22;;;;;;;4.88;1.88;;;;;;;;;;5428966;26;20085;-62
2024/04/23 08:28:53;;;;;;;5.32;1.70;;;;;;;;;;5444217;26;19995;-62
2024/04/23 08:31:18;;;;;;;4.40;1.70;;;;;;;;;;5436032;26;19995;-62
2024/04/23 08:33:44;;;;;;;5.57;2.00;;;;;;;;;;5446425;26;19999;-64
2024/04/23 08:36:10;;;;;;;4.22;1.70;;;;;;;;;;5446723;26;20070;-61
2024/04/23 08:38:35;;;;;;;4.28;1.42;;;;;;;;;;5451217;26;20008;-61
2024/04/23 08:41:01;;;;;;;4.65;2.00;;;;;;;;;;5442701;26;20009;-61
2024/04/23 08:43:30;;;;;;;4.18;1.70;;;;;;;;;;5435990;26;20003;-63
2024/04/23 08:45:56;;;;;;;5.13;2.10;;;;;;;;;;5444802;26;20033;-63
2024/04/23 08:48:23;;;;;;;4.10;1.67;;;;;;;;;;5441237;26;20451;-60
2024/04/23 08:50:49;;;;;;;6.50;1.83;;;;;;;;;;5442536;26;20461;-61
2024/04/23 08:53:15;;;;;;;4.90;2.00;;;;;;;;;;5443354;26;20002;-61
2024/04/23 08:55:43;;;;;;;4.75;2.08;;;;;;;;;;5437764;26;20017;-61
2024/04/23 08:58:09;;;;;;;4.18;1.83;;;;;;;;;;5447644;26;19999;-61
2024/04/23 09:00:37;;;;;;;4.97;1.88;;;;;;;;;;5435776;26;20007;-62
2024/04/23 09:03:04;;;;;;;5.53;1.95;;;;;;;;;;5445866;26;20437;-60
2024/04/23 09:05:29;;;;;;;5.32;2.22;;;;;;;;;;5437439;26;20015;-61
2024/04/23 09:07:55;;;;;;;4.55;1.83;;;;;;;;;;5439766;26;19996;-60
2024/04/23 09:10:21;;;;;;;5.00;2.00;;;;;;;;;;5448343;26;20014;-61
2024/04/23 09:12:47;;;;;;;4.45;1.83;;;;;;;;;;5443754;26;20067;-62
2024/04/23 09:15:13;;;;;;;5.80;2.00;;;;;;;;;;5442609;26;20009;-60
2024/04/23 09:17:42;;;;;;;5.65;1.67;;;;;;;;;;5439795;26;19998;-60
2024/04/23 09:20:10;;;;;;;5.00;1.88;;;;;;;;;;5448524;26;20011;-61
2024/04/23 09:22:37;;;;;;;4.25;1.80;;;;;;;;;;5415767;26;20010;-63
2024/04/23 09:25:03;;;;;;;4.80;2.00;;;;;;;;;;5444079;26;20043;-63
2024/04/23 09:27:30;;;;;;;4.28;1.70;;;;;;;;;;5437023;26;20099;-61
2024/04/23 09:29:56;;;;;;;4.65;1.83;;;;;;;;;;5442668;26;20010;-62
2024/04/23 09:32:21;;;;;;;4.57;1.70;;;;;;;;;;5448610;26;20588;-60
2024/04/23 09:34:54;;;;;;;5.10;2.08;;;;;;;;;;5448723;26;19995;-62
2024/04/23 09:37:19;;;;;;;4.22;1.90;;;;;;;;;;5433421;26;20012;-60
2024/04/23 09:39:45;;;;;;;4.30;1.90;;;;;;;;;;5446315;26;20006;-63
2024/04/23 09:42:10;;;;;;;4.45;2.10;;;;;;;;;;5436810;26;20044;-61
2024/04/23 09:44:37;;;;;;;5.45;1.90;;;;;;;;;;5451304;26;19998;-62
2024/04/23 09:47:02;;;;;;;;;;;;;;;;;;5450547;26;20493;-61
2024/04/23 09:49:28;;;;;;;4.83;2.00;;;;;;;;;;5435153;26;19933;-61
2024/04/23 09:51:54;;;;;;;4.32;1.80;;;;;;;;;;5444338;26;20344;-61
2024/04/23 09:54:22;;;;;;;4.82;1.77;;;;;;;;;;5448197;26;20007;-61
2024/04/23 09:56:47;;;;;;;4.30;1.70;;;;;;;;;;5433273;26;20010;-61
2024/04/23 09:59:15;;;;;;;4.07;1.60;;;;;;;;;;5431652;26;20009;-62
2024/04/23 10:01:42;;;;;;;4.03;1.60;;;;;;;;;;5435271;26;20333;-62
2024/04/23 10:04:07;;;;;;;;;;;;;;;;;;5449421;26;19995;-63
2024/04/23 10:06:38;;;;;;;3.87;1.47;;;;;;;;;;5444131;26;19931;-61
2024/04/23 10:09:13;;;;;;;3.92;1.70;;;;;;;;;;5433652;26;20369;-61
2024/04/23 10:11:43;;;;;;;3.35;1.30;;;;;;;;;;5434255;26;20009;-62
2024/04/23 10:14:31;;;;;;;3.67;1.50;;;;;;;;;;5450904;26;19998;-62
2024/04/23 10:17:11;;;;;;;3.50;1.42;;;;;;;;;;5445838;26;19995;-61
2024/04/23 10:19:37;;;;;;;4.35;1.40;;;;;;;;;;5434162;26;19995;-62
2024/04/23 10:22:04;;;;;;;4.22;1.70;;;;;;;;;;5427771;26;20700;-61
2024/04/23 10:24:29;;;;;;;4.13;1.50;;;;;;;;;;5438021;26;20005;-62
2024/04/23 10:26:55;;;;;;;3.70;1.40;;;;;;;;;;5439281;26;20031;-62
2024/04/23 10:29:21;;;;;;;4.32;1.60;;;;;;;;;;5449251;26;20002;-62
2024/04/23 10:31:46;;;;;;;3.55;1.38;;;;;;;;;;5443215;26;20319;-62
2024/04/23 10:34:15;;;;;;;2.90;1.20;;;;;;;;;;5439486;26;20393;-61
2024/04/23 10:36:47;;;;;;;3.05;1.17;;;;;;;;;;5441511;26;20341;-62
2024/04/23 10:39:14;;;;;;;3.97;1.67;;;;;;;;;;5445129;26;20574;-63
2024/04/23 10:41:40;;;;;;;4.28;1.40;;;;;;;;;;5445633;26;20319;-62
2024/04/23 10:44:09;;;;;;;3.55;1.30;;;;;;;;;;5446637;26;20007;-63
2024/04/23 10:46:36;;;;;;;4.35;1.40;;;;;;;;;;5441877;26;19990;-61
2024/04/23 10:49:01;;;;;;;;;;;;;;;;;;5457377;26;20080;-62
2024/04/23 10:51:27;;;;;;;4.13;1.40;;;;;;;;;;5456711;26;19924;-60
2024/04/23 10:53:52;;;;;;;3.80;1.38;;;;;;;;;;5450189;26;20349;-62
2024/04/23 10:56:24;;;;;;;4.15;1.30;;;;;;;;;;5444245;26;19999;-61
2024/04/23 10:59:17;;;;;;;3.55;1.15;;;;;;;;;;5441012;26;19999;-62
2024/04/23 11:02:12;;;;;;;3.10;1.38;;;;;;;;;;5445711;26;20067;-61
2024/04/23 11:04:39;;;;;;;;;;;;;;;;;;5419183;26;20007;-62
2024/04/23 11:07:05;;;;;;;3.33;1.15;;;;;;;;;;5451104;26;19925;-62
2024/04/23 11:09:37;;;;;;;4.47;1.42;;;;;;;;;;5452578;26;20005;-62
2024/04/23 11:12:03;;;;;;;3.95;1.40;;;;;;;;;;5450279;26;20031;-62
2024/04/23 11:14:33;;;;;;;3.20;1.10;;;;;;;;;;5433538;26;20027;-61
2024/04/23 11:17:04;;;;;;;3.25;1.10;;;;;;;;;;5433425;26;20000;-61
2024/04/23 11:19:34;;;;;;;4.40;1.50;;;;;;;;;;5452206;26;20010;-61
2024/04/23 11:22:01;;;;;;;2.90;1.00;;;;;;;;;;5450530;26;20342;-61
2024/04/23 11:24:28;;;;;;;5.05;1.30;;;;;;;;;;5451807;26;20010;-61
2024/04/23 11:26:53;;;;;;;4.85;1.25;;;;;;;;;;5437645;26;20457;-61
2024/04/23 11:29:19;;;;;;;3.90;1.30;;;;;;;;;;5438462;26;20002;-61
2024/04/23 11:31:46;;;;;;;4.85;1.13;;;;;;;;;;5446275;26;20080;-62
2024/04/23 11:34:13;;;;;;;3.47;1.50;;;;;;;;;;5447917;26;20015;-61
2024/04/23 11:36:39;;;;;;;3.53;1.33;;;;;;;;;;5434017;26;20011;-62
2024/04/23 11:39:07;;;;;;;3.65;1.40;;;;;;;;;;5452010;26;20014;-62
2024/04/23 11:41:33;;;;;;;3.70;1.17;;;;;;;;;;5449898;26;19995;-61
2024/04/23 11:44:01;;;;;;;4.10;1.20;;;;;;;;;;5443147;26;20511;-61
2024/04/23 11:46:26;;;;;;;5.50;1.48;;;;;;;;;;5432324;26;19996;-61
2024/04/23 11:48:52;;;;;;;3.70;1.50;;;;;;;;;;5434141;26;19999;-61
2024/04/23 11:51:18;;;;;;;3.28;1.30;;;;;;;;;;5427621;26;20434;-63
2024/04/23 11:53:44;;;;;;;3.28;1.20;;;;;;;;;;5439622;26;20351;-63
2024/04/23 11:56:09;;;;;;;3.88;1.40;;;;;;;;;;5431409;26;20003;-62
2024/04/23 11:58:38;;;;;;;3.42;1.40;;;;;;;;;;5444288;26;20343;-63
2024/04/23 12:01:04;;;;;;;3.05;1.20;;;;;;;;;;5434888;26;20511;-61
2024/04/23 12:03:29;;;;;;;3.72;1.23;;;;;;;;;;5431310;26;20112;-62
2024/04/23 12:05:55;;;;;;;4.28;1.45;;;;;;;;;;5415730;26;20357;-61
2024/04/23 12:08:20;;;;;;;3.55;1.48;;;;;;;;;;5432963;26;20456;-60
2024/04/23 12:10:46;;;;;;;4.43;1.40;;;;;;;;;;5426209;26;20003;-61
2024/04/23 12:13:21;;;;;;;3.78;1.30;;;;;;;;;;5434483;26;19998;-62
2024/04/23 12:15:47;;;;;;;3.85;1.30;;;;;;;;;;5429056;26;19996;-61
2024/04/23 12:18:13;;;;;;;4.32;1.35;;;;;;;;;;5420560;26;20068;-61
2024/04/23 12:20:39;;;;;;;3.15;1.10;;;;;;;;;;5419759;26;20014;-62
2024/04/23 12:23:05;;;;;;;5.30;1.50;;;;;;;;;;5425562;26;20007;-63
2024/04/23 12:25:31;;;;;;;4.30;1.20;;;;;;;;;;5430854;26;20011;-61
2024/04/23 12:27:56;;;;;;;3.65;1.25;;;;;;;;;;5431190;26;19996;-61
2024/04/23 12:30:25;;;;;;;3.60;1.35;;;;;;;;;;5431549;26;20055;-61
2024/04/23 12:32:51;;;;;;;3.90;1.40;;;;;;;;;;5437176;26;20006;-63
2024/04/23 12:35:17;;;;;;;;;;;;;;;;;;5445155;26;20011;-61
2024/04/23 12:37:42;;;;;;;3.70;1.30;;;;;;;;;;5428335;26;20018;-62
2024/04/23 12:40:08;;;;;;;4.78;1.40;;;;;;;;;;5425046;26;20417;-62
2024/04/23 12:42:37;;;;;;;3.70;1.60;;;;;;;;;;5417131;26;20312;-62
2024/04/23 12:45:02;;;;;;;3.45;1.42;;;;;;;;;;5438301;26;20013;-61
2024/04/23 12:47:28;;;;;;;3.90;1.60;;;;;;;;;;5428946;26;20011;-62
2024/04/23 12:49:53;;;;;;;4.05;1.45;;;;;;;;;;5425729;26;20007;-63
2024/04/23 12:52:19;;;;;;;4.03;1.30;;;;;;;;;;5424605;26;19999;-61
2024/04/23 12:54:44;;;;;;;3.78;1.27;;;;;;;;;;5417198;26;20210;-61
2024/04/23 12:57:11;;;;;;;2.78;1.17;;;;;;;;;;5438911;26;20091;-60
2024/04/23 12:59:37;;;;;;;3.03;1.13;;;;;;;;;;5430361;26;20006;-62
2024/04/23 13:02:07;;;;;;;3.70;1.42;;;;;;;;;;5423271;26;20479;-61
2024/04/23 13:04:33;;;;;;;4.50;1.55;;;;;;;;;;5427182;26;19995;-62
2024/04/23 13:06:58;;;;;;;3.38;1.30;;;;;;;;;;5424658;26;20007;-61
2024/04/23 13:09:24;;;;;;;3.20;1.15;;;;;;;;;;5429629;26;20451;-63
2024/04/23 13:11:49;;;;;;;5.00;1.45;;;;;;;;;;5421231;26;20012;-61
2024/04/23 13:14:15;;;;;;;2.85;1.15;;;;;;;;;;5420567;26;20044;-61
2024/04/23 13:16:40;;;;;;;4.35;1.60;;;;;;;;;;5428236;26;19999;-61
2024/04/23 13:19:06;;;;;;;4.47;1.17;;;;;;;;;;5443078;26;20002;-61
2024/04/23 13:21:31;;;;;;;3.08;1.15;;;;;;;;;;5428530;26;20007;-60
2024/04/23 13:23:57;;;;;;;3.00;1.17;;;;;;;;;;5437856;26;20082;-63
2024/04/23 13:26:22;;;;;;;3.60;1.30;;;;;;;;;;5449666;26;19994;-61
2024/04/23 13:28:48;;;;;;;3.53;1.27;;;;;;;;;;5436982;26;20003;-60
2024/04/23 13:31:13;;;;;;;3.78;1.33;;;;;;;;;;5425569;26;20003;-61
2024/04/23 13:33:39;;;;;;;3.13;1.23;;;;;;;;;;5435815;26;19998;-62
2024/04/23 13:36:08;;;;;;;3.83;1.00;;;;;;;;;;5434127;26;20062;-63
2024/04/23 13:38:33;;;;;;;3.38;1.15;;;;;;;;;;5440339;26;20431;-62
2024/04/23 13:40:59;;;;;;;3.55;1.27;;;;;;;;;;5433999;26;20017;-61
2024/04/23 13:43:25;;;;;;;3.50;1.30;;;;;;;;;;5445412;26;19999;-62
2024/04/23 13:45:54;;;;;;;3.78;1.30;;;;;;;;;;5437311;26;19995;-61
2024/04/23 13:48:19;;;;;;;3.15;1.20;;;;;;;;;;5421165;26;20015;-62
2024/04/23 13:50:45;;;;;;;3.03;1.20;;;;;;;;;;5416551;26;20095;-62
2024/04/23 13:53:10;;;;;;;3.80;1.33;;;;;;;;;;5436886;26;20003;-62
2024/04/23 13:55:38;;;;;;;3.90;1.20;;;;;;;;;;5444963;26;20011;-60
2024/04/23 13:58:03;;;;;;;3.67;1.35;;;;;;;;;;5445178;26;20003;-61
2024/04/23 14:00:29;;;;;;;3.40;1.27;;;;;;;;;;5433292;26;19995;-62
2024/04/23 14:02:54;;;;;;;3.30;1.33;;;;;;;;;;5421871;26;20007;-61
2024/04/23 14:05:21;;;;;;;4.00;1.50;;;;;;;;;;5438522;26;20080;-61
2024/04/23 14:07:47;;;;;;;2.78;1.20;;;;;;;;;;5446706;26;19995;-63
2024/04/23 14:10:13;;;;;;;3.60;1.30;;;;;;;;;;5447408;26;20340;-60
2024/04/23 14:12:43;;;;;;;3.40;1.10;;;;;;;;;;5449273;26;20067;-60
2024/04/23 14:15:08;;;;;;;4.10;1.50;;;;;;;;;;5449615;26;19995;-62
2024/04/23 14:17:34;;;;;;;3.30;1.30;;;;;;;;;;5449082;26;19991;-61
2024/04/23 14:19:59;;;;;;;5.75;1.48;;;;;;;;;;5445568;26;20010;-60
2024/04/23 14:22:25;;;;;;;5.20;1.40;;;;;;;;;;5450160;26;20178;-62
2024/04/23 14:24:52;;;;;;;4.00;1.70;;;;;;;;;;5455117;26;20048;-62
2024/04/23 14:27:17;;;;;;;4.47;1.52;;;;;;;;;;5454493;26;20034;-62
2024/04/23 14:29:43;;;;;;;4.00;1.60;;;;;;;;;;5453891;26;19986;-61
2024/04/23 14:32:11;;;;;;;3.33;1.23;;;;;;;;;;5441161;26;20007;-62
2024/04/23 14:34:36;;;;;;;5.00;1.52;;;;;;;;;;5447194;26;20006;-62
2024/04/23 14:37:02;;;;;;;4.18;1.70;;;;;;;;;;5455471;26;20040;-62
2024/04/23 14:39:27;;;;;;;4.13;1.30;;;;;;;;;;5453426;26;19991;-62
2024/04/23 14:41:53;;;;;;;3.60;1.50;;;;;;;;;;5453320;26;20011;-60
2024/04/23 14:44:18;;;;;;;4.45;1.50;;;;;;;;;;5454312;26;20044;-61
2024/04/23 14:46:44;;;;;;;3.50;1.33;;;;;;;;;;5448544;26;20007;-62
2024/04/23 14:49:10;;;;;;;4.40;1.10;;;;;;;;;;5452072;26;19998;-63